createdAt,value
2017-02-21T00:00:50.184Z,24.23
2017-02-21T00:01:49.521Z,24.28
2017-02-21T00:02:49.843Z,24.29
2017-02-21T00:03:49.783Z,24.35
2017-02-21T00:04:49.722Z,24.36
2017-02-21T00:05:49.810Z,24.29
2017-02-21T00:06:49.606Z,24.38
2017-02-21T00:07:49.532Z,24.4
2017-02-21T00:08:49.091Z,24.36
2017-02-21T00:09:49.413Z,24.35
2017-02-21T00:10:49.351Z,24.26
2017-02-21T00:11:49.299Z,24.26
2017-02-21T00:12:48.837Z,24.32
2017-02-21T00:13:48.785Z,24.42
2017-02-21T00:14:48.725Z,24.3
2017-02-21T00:15:49.391Z,24.28
2017-02-21T00:16:48.984Z,24.26
2017-02-21T00:17:48.921Z,24.3
2017-02-21T00:18:48.850Z,24.23
2017-02-21T00:19:48.803Z,24.36
2017-02-21T00:20:48.874Z,24.23
2017-02-21T00:21:48.661Z,24.3
2017-02-21T00:22:48.604Z,24.21
2017-02-21T00:23:48.544Z,24.24
2017-02-21T00:24:48.479Z,24.36
2017-02-21T00:25:48.423Z,24.4
2017-02-21T00:26:48.406Z,24.29
2017-02-21T00:27:48.295Z,24.26
2017-02-21T00:28:48.237Z,24.28
2017-02-21T00:29:48.174Z,24.24
2017-02-21T00:30:48.354Z,24.32
2017-02-21T00:31:47.675Z,24.36
2017-02-21T00:32:47.985Z,24.38
2017-02-21T00:33:47.918Z,24.36
2017-02-21T00:34:47.863Z,24.28
2017-02-21T00:35:47.798Z,24.4
2017-02-21T00:36:47.737Z,24.35
2017-02-21T00:37:47.669Z,24.39
2017-02-21T00:38:47.605Z,24.32
2017-02-21T00:39:47.555Z,24.4
2017-02-21T00:40:47.492Z,24.36
2017-02-21T00:41:47.646Z,24.23
2017-02-21T00:42:46.977Z,24.32
2017-02-21T00:43:46.916Z,24.35
2017-02-21T00:44:47.238Z,24.26
2017-02-21T00:45:47.204Z,24.23
2017-02-21T00:46:47.111Z,24.26
2017-02-21T00:47:47.047Z,24.28
2017-02-21T00:48:46.995Z,24.3
2017-02-21T00:49:46.966Z,24.23
2017-02-21T00:50:47.015Z,24.28
2017-02-21T00:51:46.798Z,24.33
2017-02-21T00:52:46.753Z,24.42
2017-02-21T00:53:46.676Z,24.28
2017-02-21T00:54:46.627Z,24.33
2017-02-21T00:55:46.699Z,24.35
2017-02-21T00:56:46.499Z,24.23
2017-02-21T00:57:46.428Z,24.33
2017-02-21T00:58:46.375Z,24.28
2017-02-21T00:59:46.310Z,24.36
2017-02-21T01:01:16.228Z,24.35
2017-02-21T01:02:16.110Z,24.26
2017-02-21T01:03:16.069Z,24.3
2017-02-21T01:04:15.991Z,24.24
2017-02-21T01:05:15.929Z,24.32
2017-02-21T01:06:15.866Z,24.36
2017-02-21T01:07:15.801Z,24.28
2017-02-21T01:08:15.354Z,24.23
2017-02-21T01:09:15.678Z,24.42
2017-02-21T01:10:15.868Z,24.21
2017-02-21T01:11:15.423Z,24.24
2017-02-21T01:12:15.510Z,24.26
2017-02-21T01:13:15.433Z,24.3
2017-02-21T01:14:14.983Z,24.39
2017-02-21T01:15:15.301Z,24.36
2017-02-21T01:16:15.238Z,24.36
2017-02-21T01:17:15.188Z,24.28
2017-02-21T01:18:15.144Z,24.32
2017-02-21T01:19:14.683Z,24.38
2017-02-21T01:20:14.990Z,24.36
2017-02-21T01:21:14.926Z,24.3
2017-02-21T01:22:14.901Z,24.39
2017-02-21T01:23:14.810Z,24.36
2017-02-21T01:24:14.744Z,24.29
2017-02-21T01:25:14.691Z,24.24
2017-02-21T01:26:14.619Z,24.21
2017-02-21T01:27:14.170Z,24.36
2017-02-21T01:28:14.111Z,24.3
2017-02-21T01:29:14.430Z,24.42
2017-02-21T01:30:13.596Z,24.38
2017-02-21T01:31:14.319Z,24.35
2017-02-21T01:32:13.857Z,24.36
2017-02-21T01:33:14.182Z,24.4
2017-02-21T01:34:14.120Z,24.36
2017-02-21T01:35:14.311Z,24.32
2017-02-21T01:36:14.001Z,24.26
2017-02-21T01:37:13.933Z,24.38
2017-02-21T01:38:13.881Z,24.36
2017-02-21T01:39:13.820Z,24.24
2017-02-21T01:40:13.896Z,24.33
2017-02-21T01:41:13.692Z,24.29
2017-02-21T01:42:13.627Z,24.3
2017-02-21T01:43:13.572Z,24.38
2017-02-21T01:44:13.516Z,24.28
2017-02-21T01:45:13.584Z,24.28
2017-02-21T01:46:13.412Z,24.32
2017-02-21T01:47:12.928Z,24.4
2017-02-21T01:48:12.863Z,24.35
2017-02-21T01:49:12.801Z,24.33
2017-02-21T01:50:13.630Z,24.26
2017-02-21T01:51:13.068Z,24.3
2017-02-21T01:52:13.000Z,24.29
2017-02-21T01:53:12.548Z,24.4
2017-02-21T01:54:12.506Z,24.32
2017-02-21T01:55:12.830Z,24.36
2017-02-21T01:56:12.978Z,24.4
2017-02-21T01:57:12.705Z,24.36
2017-02-21T01:58:12.626Z,24.29
2017-02-21T01:59:12.573Z,24.29
2017-02-21T02:00:12.656Z,24.29
2017-02-21T02:01:12.452Z,24.3
2017-02-21T02:02:12.046Z,24.23
2017-02-21T02:03:11.931Z,24.39
2017-02-21T02:04:12.258Z,24.26
2017-02-21T02:05:12.503Z,24.23
2017-02-21T02:06:12.131Z,24.29
2017-02-21T02:07:12.083Z,24.28
2017-02-21T02:08:12.010Z,24.21
2017-02-21T02:09:11.943Z,24.3
2017-02-21T02:10:11.879Z,24.24
2017-02-21T02:11:11.817Z,24.4
2017-02-21T02:12:11.762Z,24.28
2017-02-21T02:13:11.701Z,24.29
2017-02-21T02:14:11.629Z,24.38
2017-02-21T02:15:11.573Z,24.38
2017-02-21T02:16:11.522Z,24.26
2017-02-21T02:17:11.472Z,24.26
2017-02-21T02:18:11.026Z,24.24
2017-02-21T02:19:11.337Z,24.28
2017-02-21T02:20:11.266Z,24.33
2017-02-21T02:21:11.235Z,24.23
2017-02-21T02:22:11.144Z,24.33
2017-02-21T02:23:10.691Z,24.29
2017-02-21T02:24:11.024Z,24.36
2017-02-21T02:25:10.963Z,24.32
2017-02-21T02:26:10.523Z,24.24
2017-02-21T02:27:10.841Z,24.3
2017-02-21T02:28:10.777Z,24.36
2017-02-21T02:29:10.350Z,24.3
2017-02-21T02:30:10.114Z,24.32
2017-02-21T02:31:10.583Z,24.39
2017-02-21T02:32:09.744Z,24.42
2017-02-21T02:33:10.454Z,24.28
2017-02-21T02:34:10.393Z,24.29
2017-02-21T02:35:10.680Z,24.38
2017-02-21T02:36:09.899Z,24.39
2017-02-21T02:37:10.206Z,24.26
2017-02-21T02:38:09.750Z,24.24
2017-02-21T02:39:10.083Z,24.28
2017-02-21T02:40:10.037Z,24.36
2017-02-21T02:41:09.952Z,24.42
2017-02-21T02:42:09.899Z,24.24
2017-02-21T02:43:09.456Z,24.39
2017-02-21T02:44:09.390Z,24.33
2017-02-21T02:45:09.720Z,24.38
2017-02-21T02:46:09.655Z,24.32
2017-02-21T02:47:09.581Z,24.24
2017-02-21T02:48:09.521Z,24.24
2017-02-21T02:49:09.457Z,24.28
2017-02-21T02:50:09.550Z,24.32
2017-02-21T02:51:09.333Z,24.39
2017-02-21T02:52:09.283Z,24.26
2017-02-21T02:53:09.204Z,24.29
2017-02-21T02:54:09.145Z,24.33
2017-02-21T02:55:09.230Z,24.42
2017-02-21T02:56:09.016Z,24.28
2017-02-21T02:57:08.976Z,24.29
2017-02-21T02:58:08.906Z,24.24
2017-02-21T02:59:08.846Z,24.24
2017-02-21T03:00:08.776Z,24.42
2017-02-21T03:01:08.710Z,24.3
2017-02-21T03:02:08.653Z,24.3
2017-02-21T03:03:08.585Z,24.35
2017-02-21T03:04:08.541Z,24.4
2017-02-21T03:05:08.458Z,24.38
2017-02-21T03:06:08.427Z,24.28
2017-02-21T03:07:08.336Z,24.32
2017-02-21T03:08:08.293Z,24.26
2017-02-21T03:09:08.225Z,24.28
2017-02-21T03:10:08.154Z,24.32
2017-02-21T03:11:08.091Z,24.26
2017-02-21T03:12:08.026Z,24.39
2017-02-21T03:13:07.981Z,24.36
2017-02-21T03:14:07.899Z,24.32
2017-02-21T03:15:07.455Z,24.36
2017-02-21T03:16:07.792Z,24.36
2017-02-21T03:17:07.760Z,24.32
2017-02-21T03:18:07.673Z,24.38
2017-02-21T03:19:07.587Z,24.33
2017-02-21T03:20:07.629Z,24.35
2017-02-21T03:21:07.479Z,24.32
2017-02-21T03:22:07.016Z,24.3
2017-02-21T03:23:07.349Z,24.3
2017-02-21T03:24:07.283Z,24.29
2017-02-21T03:25:07.555Z,24.4
2017-02-21T03:26:07.165Z,24.35
2017-02-21T03:27:07.105Z,24.3
2017-02-21T03:28:07.028Z,24.36
2017-02-21T03:29:06.989Z,24.28
2017-02-21T03:30:07.086Z,24.24
2017-02-21T03:31:06.846Z,24.26
2017-02-21T03:32:06.797Z,24.28
2017-02-21T03:33:06.733Z,24.29
2017-02-21T03:34:06.657Z,24.23
2017-02-21T03:35:06.853Z,24.26
2017-02-21T03:36:06.541Z,24.32
2017-02-21T03:37:06.491Z,24.39
2017-02-21T03:38:06.409Z,24.36
2017-02-21T03:39:06.369Z,24.23
2017-02-21T03:40:06.307Z,24.39
2017-02-21T03:41:06.235Z,24.3
2017-02-21T03:42:06.165Z,24.36
2017-02-21T03:43:06.110Z,24.36
2017-02-21T03:44:06.056Z,24.26
2017-02-21T03:45:06.177Z,24.36
2017-02-21T03:46:05.908Z,24.3
2017-02-21T03:47:05.850Z,24.28
2017-02-21T03:48:05.785Z,24.26
2017-02-21T03:49:05.736Z,24.26
2017-02-21T03:50:05.761Z,24.3
2017-02-21T03:51:05.603Z,24.42
2017-02-21T03:52:05.543Z,24.3
2017-02-21T03:53:05.485Z,24.26
2017-02-21T03:54:05.452Z,24.24
2017-02-21T03:55:05.360Z,24.35
2017-02-21T03:56:05.317Z,24.28
2017-02-21T03:57:05.224Z,24.36
2017-02-21T03:58:05.165Z,24.29
2017-02-21T03:59:05.108Z,24.26
2017-02-21T04:00:05.106Z,24.26
2017-02-21T04:01:04.985Z,24.28
2017-02-21T04:02:04.940Z,24.29
2017-02-21T04:03:04.848Z,24.26
2017-02-21T04:04:04.786Z,24.36
2017-02-21T04:05:04.749Z,24.42
2017-02-21T04:06:04.943Z,24.29
2017-02-21T04:07:04.600Z,24.26
2017-02-21T04:08:04.156Z,24.32
2017-02-21T04:09:04.482Z,24.26
2017-02-21T04:10:04.451Z,24.32
2017-02-21T04:11:04.357Z,24.29
2017-02-21T04:12:04.295Z,24.36
2017-02-21T04:13:04.244Z,24.29
2017-02-21T04:14:04.182Z,24.36
2017-02-21T04:15:04.292Z,24.26
2017-02-21T04:16:03.663Z,24.23
2017-02-21T04:17:03.983Z,24.32
2017-02-21T04:18:03.962Z,24.26
2017-02-21T04:19:03.859Z,24.38
2017-02-21T04:20:03.797Z,24.29
2017-02-21T04:21:03.806Z,24.36
2017-02-21T04:22:03.678Z,24.32
2017-02-21T04:23:03.611Z,24.32
2017-02-21T04:24:03.196Z,24.36
2017-02-21T04:25:03.480Z,24.4
2017-02-21T04:26:03.435Z,24.33
2017-02-21T04:27:03.373Z,24.4
2017-02-21T04:28:03.315Z,24.36
2017-02-21T04:29:02.850Z,24.36
2017-02-21T04:30:03.142Z,24.29
2017-02-21T04:31:03.109Z,24.29
2017-02-21T04:32:03.093Z,24.26
2017-02-21T04:33:02.602Z,24.36
2017-02-21T04:34:02.924Z,24.3
2017-02-21T04:35:02.871Z,24.32
2017-02-21T04:36:02.419Z,24.39
2017-02-21T04:37:02.740Z,24.36
2017-02-21T04:38:02.672Z,24.24
2017-02-21T04:39:02.612Z,24.24
2017-02-21T04:40:02.553Z,24.3
2017-02-21T04:41:02.492Z,24.32
2017-02-21T04:42:02.443Z,24.28
2017-02-21T04:43:02.400Z,24.3
2017-02-21T04:44:02.300Z,24.23
2017-02-21T04:45:02.305Z,24.3
2017-02-21T04:46:02.180Z,24.26
2017-02-21T04:47:02.130Z,24.28
2017-02-21T04:48:02.054Z,24.28
2017-02-21T04:49:01.993Z,24.26
2017-02-21T04:50:01.970Z,24.26
2017-02-21T04:51:01.871Z,24.28
2017-02-21T04:52:01.804Z,24.36
2017-02-21T04:53:01.768Z,24.29
2017-02-21T04:54:01.706Z,24.3
2017-02-21T04:55:01.638Z,24.35
2017-02-21T04:56:01.566Z,24.24
2017-02-21T04:57:01.507Z,24.24
2017-02-21T04:58:01.432Z,24.36
2017-02-21T04:59:01.367Z,24.36
2017-02-21T05:00:00.947Z,24.36
2017-02-21T05:01:01.254Z,24.32
2017-02-21T05:02:00.806Z,24.28
2017-02-21T05:03:01.133Z,24.24
2017-02-21T05:04:01.068Z,24.35
2017-02-21T05:05:01.003Z,24.26
2017-02-21T05:06:00.936Z,24.26
2017-02-21T05:07:00.879Z,24.33
2017-02-21T05:08:00.825Z,24.28
2017-02-21T05:09:00.774Z,24.33
2017-02-21T05:10:00.701Z,24.29
2017-02-21T05:11:00.972Z,24.32
2017-02-21T05:12:00.567Z,24.24
2017-02-21T05:13:00.113Z,24.26
2017-02-21T05:14:00.445Z,24.26
2017-02-21T05:15:00.372Z,24.24
2017-02-21T05:15:59.935Z,24.28
2017-02-21T05:17:00.258Z,24.29
2017-02-21T05:18:00.199Z,24.28
2017-02-21T05:19:00.130Z,24.29
2017-02-21T05:20:00.078Z,24.3
2017-02-21T05:20:59.622Z,24.28
2017-02-21T05:21:59.942Z,24.28
2017-02-21T05:22:59.911Z,24.32
2017-02-21T05:23:59.827Z,24.24
2017-02-21T05:24:59.756Z,24.28
2017-02-21T05:25:59.692Z,24.3
2017-02-21T05:26:59.662Z,24.3
2017-02-21T05:27:59.586Z,24.29
2017-02-21T05:28:59.510Z,24.26
2017-02-21T05:29:59.446Z,24.3
2017-02-21T05:30:59.387Z,24.23
2017-02-21T05:31:59.334Z,24.33
2017-02-21T05:32:59.274Z,24.3
2017-02-21T05:33:59.205Z,24.29
2017-02-21T05:34:59.144Z,24.26
2017-02-21T05:35:58.686Z,24.32
2017-02-21T05:36:59.019Z,24.29
2017-02-21T05:37:58.977Z,24.24
2017-02-21T05:38:58.890Z,24.28
2017-02-21T05:39:58.475Z,24.33
2017-02-21T05:40:58.809Z,24.24
2017-02-21T05:41:58.699Z,24.26
2017-02-21T05:42:58.649Z,24.32
2017-02-21T05:43:58.572Z,24.24
2017-02-21T05:44:58.535Z,24.28
2017-02-21T05:45:58.556Z,24.3
2017-02-21T05:46:58.388Z,24.26
2017-02-21T05:47:58.342Z,24.28
2017-02-21T05:48:58.261Z,24.28
2017-02-21T05:49:58.196Z,24.28
2017-02-21T05:50:58.136Z,24.32
2017-02-21T05:51:58.071Z,24.26
2017-02-21T05:52:58.018Z,24.26
2017-02-21T05:53:57.950Z,24.28
2017-02-21T05:54:57.503Z,24.29
2017-02-21T05:55:57.440Z,24.24
2017-02-21T05:56:57.786Z,24.29
2017-02-21T05:57:57.697Z,24.28
2017-02-21T05:58:57.663Z,24.36
2017-02-21T05:59:57.573Z,24.29
2017-02-21T06:00:57.870Z,24.28
2017-02-21T06:01:57.463Z,24.3
2017-02-21T06:02:57.385Z,24.28
2017-02-21T06:03:57.330Z,24.21
2017-02-21T06:04:57.262Z,24.28
2017-02-21T06:05:57.225Z,24.32
2017-02-21T06:06:57.162Z,24.26
2017-02-21T06:07:57.077Z,24.35
2017-02-21T06:08:57.035Z,24.3
2017-02-21T06:09:56.591Z,24.32
2017-02-21T06:10:56.910Z,24.24
2017-02-21T06:11:56.856Z,24.35
2017-02-21T06:12:56.777Z,24.28
2017-02-21T06:13:56.328Z,24.26
2017-02-21T06:14:56.645Z,24.33
2017-02-21T06:15:56.878Z,24.23
2017-02-21T06:16:56.531Z,24.3
2017-02-21T06:17:56.455Z,24.24
2017-02-21T06:18:56.392Z,24.24
2017-02-21T06:19:56.336Z,24.26
2017-02-21T06:20:56.288Z,24.28
2017-02-21T06:21:56.218Z,24.29
2017-02-21T06:22:56.170Z,24.29
2017-02-21T06:23:56.082Z,24.23
2017-02-21T06:24:56.019Z,24.23
2017-02-21T06:25:56.108Z,24.24
2017-02-21T06:26:55.901Z,24.33
2017-02-21T06:27:55.836Z,24.29
2017-02-21T06:28:55.775Z,24.29
2017-02-21T06:29:55.725Z,24.26
2017-02-21T06:30:55.413Z,24.28
2017-02-21T06:31:54.811Z,24.23
2017-02-21T06:32:55.538Z,24.29
2017-02-21T06:33:55.526Z,24.21
2017-02-21T06:34:55.406Z,24.26
2017-02-21T06:35:55.586Z,24.26
2017-02-21T06:36:55.286Z,24.24
2017-02-21T06:37:55.215Z,24.23
2017-02-21T06:38:55.148Z,24.24
2017-02-21T06:39:55.152Z,24.24
2017-02-21T06:40:55.025Z,24.24
2017-02-21T06:41:54.961Z,24.26
2017-02-21T06:42:54.903Z,24.3
2017-02-21T06:43:54.863Z,24.26
2017-02-21T06:44:54.772Z,24.26
2017-02-21T06:45:54.962Z,24.29
2017-02-21T06:46:54.722Z,24.28
2017-02-21T06:47:54.307Z,24.24
2017-02-21T06:48:54.523Z,24.33
2017-02-21T06:49:54.478Z,24.28
2017-02-21T06:50:54.439Z,24.24
2017-02-21T06:51:54.343Z,24.24
2017-02-21T06:52:54.283Z,24.24
2017-02-21T06:53:53.928Z,24.28
2017-02-21T06:54:54.152Z,24.26
2017-02-21T06:55:54.096Z,24.23
2017-02-21T06:56:54.026Z,24.24
2017-02-21T06:57:53.965Z,24.23
2017-02-21T06:58:53.924Z,24.3
2017-02-21T06:59:53.839Z,24.26
2017-02-21T07:00:53.555Z,24.29
2017-02-21T07:01:53.717Z,24.26
2017-02-21T07:02:53.659Z,24.24
2017-02-21T07:03:53.589Z,24.23
2017-02-21T07:04:53.528Z,24.24
2017-02-21T07:05:53.616Z,24.2
2017-02-21T07:06:53.418Z,24.28
2017-02-21T07:07:52.958Z,24.28
2017-02-21T07:08:53.298Z,24.3
2017-02-21T07:09:53.266Z,24.24
2017-02-21T07:10:52.798Z,24.23
2017-02-21T07:11:53.116Z,24.29
2017-02-21T07:12:53.032Z,24.28
2017-02-21T07:13:52.980Z,24.23
2017-02-21T07:14:52.529Z,24.24
2017-02-21T07:15:52.461Z,24.26
2017-02-21T07:16:52.783Z,24.28
2017-02-21T07:17:52.346Z,24.23
2017-02-21T07:18:52.664Z,24.26
2017-02-21T07:19:52.215Z,24.24
2017-02-21T07:20:52.623Z,24.23
2017-02-21T07:21:52.093Z,24.26
2017-02-21T07:22:52.037Z,24.26
2017-02-21T07:23:52.350Z,24.29
2017-02-21T07:24:51.909Z,24.24
2017-02-21T07:25:51.852Z,24.29
2017-02-21T07:26:52.031Z,24.26
2017-02-21T07:27:51.716Z,24.3
2017-02-21T07:28:52.069Z,24.21
2017-02-21T07:29:51.997Z,24.24
2017-02-21T07:30:51.914Z,24.26
2017-02-21T07:31:51.097Z,24.24
2017-02-21T07:32:51.817Z,24.29
2017-02-21T07:33:51.724Z,24.24
2017-02-21T07:34:51.663Z,24.24
2017-02-21T07:35:51.484Z,24.28
2017-02-21T07:36:51.548Z,24.28
2017-02-21T07:37:51.502Z,24.26
2017-02-21T07:38:51.045Z,24.26
2017-02-21T07:39:51.353Z,24.24
2017-02-21T07:40:51.056Z,24.24
2017-02-21T07:41:51.235Z,24.24
2017-02-21T07:42:51.175Z,24.26
2017-02-21T07:43:51.107Z,24.3
2017-02-21T07:44:51.051Z,24.23
2017-02-21T07:45:50.992Z,24.24
2017-02-21T07:46:50.149Z,24.23
2017-02-21T07:47:50.853Z,24.29
2017-02-21T07:48:50.809Z,24.23
2017-02-21T07:49:50.734Z,24.26
2017-02-21T07:50:50.283Z,24.24
2017-02-21T07:51:50.636Z,24.29
2017-02-21T07:52:50.551Z,24.3
2017-02-21T07:53:50.105Z,24.26
2017-02-21T07:54:50.423Z,24.28
2017-02-21T07:55:49.972Z,24.28
2017-02-21T07:56:50.325Z,24.23
2017-02-21T07:57:50.244Z,24.23
2017-02-21T07:58:50.180Z,24.28
2017-02-21T07:59:50.104Z,24.23
2017-02-21T08:00:50.245Z,24.26
2017-02-21T08:01:49.985Z,24.29
2017-02-21T08:02:49.535Z,24.24
2017-02-21T08:03:49.885Z,24.24
2017-02-21T08:04:49.408Z,24.26
2017-02-21T08:05:49.735Z,24.3
2017-02-21T08:06:49.922Z,24.26
2017-02-21T08:07:49.614Z,24.26
2017-02-21T08:08:49.548Z,24.23
2017-02-21T08:09:49.478Z,24.29
2017-02-21T08:10:49.048Z,24.23
2017-02-21T08:11:49.006Z,24.23
2017-02-21T08:12:49.256Z,24.26
2017-02-21T08:13:49.271Z,24.3
2017-02-21T08:14:49.211Z,24.29
2017-02-21T08:15:48.985Z,24.24
2017-02-21T08:16:49.053Z,24.24
2017-02-21T08:17:48.993Z,24.23
2017-02-21T08:18:48.919Z,24.26
2017-02-21T08:19:48.862Z,24.28
2017-02-21T08:20:48.962Z,24.26
2017-02-21T08:21:48.745Z,24.24
2017-02-21T08:22:48.695Z,24.21
2017-02-21T08:23:48.609Z,24.26
2017-02-21T08:24:48.554Z,24.24
2017-02-21T08:25:48.633Z,24.24
2017-02-21T08:26:48.434Z,24.26
2017-02-21T08:27:47.976Z,24.23
2017-02-21T08:28:47.918Z,24.29
2017-02-21T08:29:48.248Z,24.26
2017-02-21T08:30:48.609Z,24.23
2017-02-21T08:31:48.114Z,24.21
2017-02-21T08:32:48.062Z,24.24
2017-02-21T08:33:47.985Z,24.23
2017-02-21T08:34:47.545Z,24.26
2017-02-21T08:35:47.877Z,24.3
2017-02-21T08:36:47.812Z,24.28
2017-02-21T08:37:47.754Z,24.28
2017-02-21T08:38:47.749Z,24.26
2017-02-21T08:39:47.616Z,24.24
2017-02-21T08:40:47.906Z,24.3
2017-02-21T08:41:47.101Z,24.33
2017-02-21T08:42:47.430Z,24.29
2017-02-21T08:43:47.367Z,24.24
2017-02-21T08:44:47.307Z,24.28
2017-02-21T08:45:47.239Z,24.29
2017-02-21T08:46:47.200Z,24.29
2017-02-21T08:47:46.799Z,24.28
2017-02-21T08:48:47.055Z,24.23
2017-02-21T08:49:47.007Z,24.23
2017-02-21T08:50:46.934Z,24.26
2017-02-21T08:51:46.865Z,24.24
2017-02-21T08:52:46.422Z,24.28
2017-02-21T08:53:46.360Z,24.26
2017-02-21T08:54:46.704Z,24.24
2017-02-21T08:55:46.915Z,24.26
2017-02-21T08:56:46.558Z,24.3
2017-02-21T08:57:46.516Z,24.23
2017-02-21T08:58:46.447Z,24.23
2017-02-21T08:59:46.439Z,24.28
2017-02-21T09:00:46.319Z,24.23
2017-02-21T09:01:46.259Z,24.26
2017-02-21T09:02:46.190Z,24.24
2017-02-21T09:03:46.116Z,24.26
2017-02-21T09:04:46.065Z,24.28
2017-02-21T09:05:45.997Z,24.29
2017-02-21T09:06:45.568Z,24.23
2017-02-21T09:07:45.869Z,24.26
2017-02-21T09:08:45.811Z,24.2
2017-02-21T09:09:45.783Z,24.29
2017-02-21T09:10:45.647Z,24.29
2017-02-21T09:11:45.633Z,24.36
2017-02-21T09:12:45.574Z,24.35
2017-02-21T09:13:45.141Z,24.39
2017-02-21T09:14:45.444Z,24.35
2017-02-21T09:15:45.138Z,24.35
2017-02-21T09:16:45.329Z,24.42
2017-02-21T09:17:45.248Z,24.38
2017-02-21T09:18:44.803Z,24.38
2017-02-21T09:19:45.139Z,24.42
2017-02-21T09:20:45.070Z,24.4
2017-02-21T09:21:45.004Z,24.43
2017-02-21T09:22:44.933Z,24.39
2017-02-21T09:23:44.887Z,24.45
2017-02-21T09:24:44.816Z,24.5
2017-02-21T09:25:45.008Z,24.42
2017-02-21T09:26:44.716Z,24.43
2017-02-21T09:27:44.629Z,24.48
2017-02-21T09:28:44.582Z,24.39
2017-02-21T09:29:44.528Z,24.45
2017-02-21T09:30:44.448Z,24.48
2017-02-21T09:31:44.483Z,24.43
2017-02-21T09:32:44.320Z,24.43
2017-02-21T09:33:44.261Z,24.43
2017-02-21T09:34:44.193Z,24.48
2017-02-21T09:35:44.132Z,24.51
2017-02-21T09:36:44.093Z,24.51
2017-02-21T09:37:44.008Z,24.5
2017-02-21T09:38:43.949Z,24.42
2017-02-21T09:39:43.911Z,24.47
2017-02-21T09:40:44.040Z,24.61
2017-02-21T09:41:43.763Z,24.63
2017-02-21T09:42:43.704Z,24.61
2017-02-21T09:43:43.647Z,24.47
2017-02-21T09:44:43.620Z,24.63
2017-02-21T09:45:43.519Z,24.61
2017-02-21T09:46:43.450Z,24.57
2017-02-21T09:47:43.389Z,24.65
2017-02-21T09:48:43.367Z,24.54
2017-02-21T09:49:43.265Z,24.65
2017-02-21T09:50:43.355Z,24.61
2017-02-21T09:51:42.778Z,24.54
2017-02-21T09:52:42.693Z,24.65
2017-02-21T09:53:42.637Z,24.61
2017-02-21T09:54:42.958Z,24.63
2017-02-21T09:55:43.249Z,24.61
2017-02-21T09:56:42.835Z,24.73
2017-02-21T09:57:42.766Z,24.69
2017-02-21T09:58:42.711Z,24.69
2017-02-21T09:59:42.646Z,24.63
2017-02-21T10:00:42.870Z,24.69
2017-02-21T10:01:42.517Z,24.73
2017-02-21T10:02:42.461Z,24.66
2017-02-21T10:03:42.414Z,24.76
2017-02-21T10:04:42.335Z,24.7
2017-02-21T10:05:41.917Z,24.66
2017-02-21T10:06:42.221Z,24.68
2017-02-21T10:07:41.777Z,24.65
2017-02-21T10:08:41.715Z,24.61
2017-02-21T10:09:41.645Z,24.58
2017-02-21T10:10:41.826Z,24.63
2017-02-21T10:11:41.539Z,24.68
2017-02-21T10:12:41.851Z,24.61
2017-02-21T10:13:41.786Z,24.57
2017-02-21T10:14:41.722Z,24.68
2017-02-21T10:15:41.770Z,24.63
2017-02-21T10:16:41.610Z,24.65
2017-02-21T10:17:41.584Z,24.57
2017-02-21T10:18:41.475Z,24.54
2017-02-21T10:19:41.434Z,24.6
2017-02-21T10:20:41.746Z,24.65
2017-02-21T10:21:41.308Z,24.6
2017-02-21T10:22:41.228Z,24.68
2017-02-21T10:23:41.168Z,24.57
2017-02-21T10:24:41.108Z,24.61
2017-02-21T10:25:41.342Z,24.61
2017-02-21T10:26:40.996Z,24.58
2017-02-21T10:27:40.918Z,24.63
2017-02-21T10:28:40.859Z,24.63
2017-02-21T10:29:40.811Z,24.57
2017-02-21T10:30:40.757Z,24.63
2017-02-21T10:31:40.684Z,24.61
2017-02-21T10:32:40.613Z,24.61
2017-02-21T10:33:40.169Z,24.61
2017-02-21T10:34:40.103Z,24.61
2017-02-21T10:35:40.292Z,24.6
2017-02-21T10:36:40.361Z,24.63
2017-02-21T10:37:39.936Z,24.63
2017-02-21T10:38:40.238Z,24.69
2017-02-21T10:39:39.788Z,24.61
2017-02-21T10:40:40.376Z,24.73
2017-02-21T10:41:40.130Z,24.65
2017-02-21T10:42:39.624Z,24.76
2017-02-21T10:43:39.944Z,24.65
2017-02-21T10:44:39.892Z,24.76
2017-02-21T10:45:39.811Z,24.68
2017-02-21T10:46:39.768Z,24.7
2017-02-21T10:47:39.681Z,24.76
2017-02-21T10:48:39.626Z,24.63
2017-02-21T10:49:39.595Z,24.65
2017-02-21T10:50:39.744Z,24.65
2017-02-21T10:51:39.438Z,24.66
2017-02-21T10:52:39.369Z,24.65
2017-02-21T10:53:39.315Z,24.7
2017-02-21T10:54:39.251Z,24.73
2017-02-21T10:55:39.687Z,24.63
2017-02-21T10:56:38.756Z,24.69
2017-02-21T10:57:39.087Z,24.7
2017-02-21T10:58:39.015Z,24.65
2017-02-21T10:59:38.943Z,24.66
2017-02-21T11:00:38.887Z,24.73
2017-02-21T11:01:38.819Z,24.65
2017-02-21T11:02:38.754Z,24.74
2017-02-21T11:03:38.704Z,24.66
2017-02-21T11:04:38.639Z,24.77
2017-02-21T11:05:38.733Z,24.65
2017-02-21T11:06:38.512Z,24.68
2017-02-21T11:07:38.473Z,24.73
2017-02-21T11:08:38.409Z,24.68
2017-02-21T11:09:38.336Z,24.73
2017-02-21T11:10:38.572Z,24.65
2017-02-21T11:11:38.209Z,24.76
2017-02-21T11:12:38.139Z,24.69
2017-02-21T11:13:38.072Z,24.69
2017-02-21T11:14:38.026Z,24.69
2017-02-21T11:15:38.079Z,24.66
2017-02-21T11:16:37.899Z,24.69
2017-02-21T11:17:37.837Z,24.73
2017-02-21T11:18:37.774Z,24.69
2017-02-21T11:19:37.734Z,24.65
2017-02-21T11:20:37.897Z,24.63
2017-02-21T11:21:37.596Z,24.66
2017-02-21T11:22:37.526Z,24.63
2017-02-21T11:23:37.480Z,24.65
2017-02-21T11:24:37.470Z,24.81
2017-02-21T11:25:37.691Z,24.69
2017-02-21T11:26:36.903Z,24.66
2017-02-21T11:27:37.224Z,24.66
2017-02-21T11:28:37.236Z,24.68
2017-02-21T11:29:37.089Z,24.65
2017-02-21T11:30:37.635Z,24.74
2017-02-21T11:31:36.965Z,24.69
2017-02-21T11:32:36.905Z,24.65
2017-02-21T11:33:36.848Z,24.63
2017-02-21T11:34:36.781Z,24.65
2017-02-21T11:35:37.314Z,24.69
2017-02-21T11:36:36.747Z,24.65
2017-02-21T11:37:35.832Z,24.69
2017-02-21T11:38:36.578Z,24.65
2017-02-21T11:39:36.484Z,24.76
2017-02-21T11:40:36.415Z,24.69
2017-02-21T11:41:36.350Z,24.7
2017-02-21T11:42:36.286Z,24.69
2017-02-21T11:43:36.235Z,24.73
2017-02-21T11:44:36.250Z,24.68
2017-02-21T11:45:36.100Z,24.65
2017-02-21T11:46:36.049Z,24.61
2017-02-21T11:47:35.987Z,24.68
2017-02-21T11:48:35.934Z,24.73
2017-02-21T11:49:35.860Z,24.61
2017-02-21T11:50:35.878Z,24.73
2017-02-21T11:51:35.802Z,24.69
2017-02-21T11:52:35.668Z,24.68
2017-02-21T11:53:35.616Z,24.65
2017-02-21T11:54:35.172Z,24.65
2017-02-21T11:55:35.841Z,24.76
2017-02-21T11:56:35.426Z,24.65
2017-02-21T11:57:35.363Z,24.68
2017-02-21T11:58:35.303Z,24.74
2017-02-21T11:59:35.234Z,24.76
2017-02-21T12:00:35.688Z,24.69
2017-02-21T12:01:35.132Z,24.68
2017-02-21T12:02:35.087Z,24.7
2017-02-21T12:03:34.998Z,24.66
2017-02-21T12:04:34.938Z,24.68
2017-02-21T12:05:35.014Z,24.77
2017-02-21T12:06:34.032Z,24.66
2017-02-21T12:07:34.954Z,24.7
2017-02-21T12:08:33.907Z,24.73
2017-02-21T12:09:34.624Z,24.74
2017-02-21T12:10:34.566Z,24.65
2017-02-21T12:11:34.534Z,24.73
2017-02-21T12:12:34.457Z,24.61
2017-02-21T12:13:34.597Z,24.63
2017-02-21T12:14:34.319Z,24.69
2017-02-21T12:15:34.260Z,24.76
2017-02-21T12:16:34.390Z,24.68
2017-02-21T12:17:33.737Z,24.63
2017-02-21T12:18:34.077Z,24.69
2017-02-21T12:19:34.010Z,24.66
2017-02-21T12:20:34.439Z,24.6
2017-02-21T12:21:33.881Z,24.61
2017-02-21T12:22:33.815Z,24.63
2017-02-21T12:23:33.381Z,24.57
2017-02-21T12:24:33.698Z,24.68
2017-02-21T12:25:33.812Z,24.65
2017-02-21T12:26:33.570Z,24.61
2017-02-21T12:27:33.510Z,24.6
2017-02-21T12:28:33.571Z,24.66
2017-02-21T12:29:33.417Z,24.54
2017-02-21T12:30:32.936Z,24.61
2017-02-21T12:31:33.269Z,24.65
2017-02-21T12:32:32.827Z,24.68
2017-02-21T12:33:32.812Z,24.6
2017-02-21T12:34:33.113Z,24.66
2017-02-21T12:35:32.671Z,24.68
2017-02-21T12:36:32.580Z,24.68
2017-02-21T12:37:32.510Z,24.61
2017-02-21T12:38:32.827Z,24.57
2017-02-21T12:39:32.038Z,24.69
2017-02-21T12:40:32.711Z,24.65
2017-02-21T12:41:31.869Z,24.68
2017-02-21T12:42:32.614Z,24.61
2017-02-21T12:43:32.584Z,24.63
2017-02-21T12:44:32.070Z,24.6
2017-02-21T12:45:32.429Z,24.58
2017-02-21T12:46:32.332Z,24.55
2017-02-21T12:47:31.883Z,24.63
2017-02-21T12:48:32.225Z,24.58
2017-02-21T12:49:32.242Z,24.61
2017-02-21T12:50:31.816Z,24.6
2017-02-21T12:51:31.712Z,24.61
2017-02-21T12:52:31.588Z,24.57
2017-02-21T12:53:31.749Z,24.54
2017-02-21T12:54:31.833Z,24.6
2017-02-21T12:55:31.883Z,24.61